createdAt,value
2017-10-20T00:01:28.633Z,85.40
2017-10-20T00:03:59.637Z,85.40
2017-10-20T00:06:28.173Z,85.30
2017-10-20T00:08:55.912Z,85.50
2017-10-20T00:11:24.964Z,85.60
2017-10-20T00:13:53.358Z,85.80
2017-10-20T00:16:22.052Z,86.00
2017-10-20T00:18:49.612Z,86.20
2017-10-20T00:21:17.219Z,86.00
2017-10-20T00:23:45.454Z,86.10
2017-10-20T00:26:14.024Z,86.10
2017-10-20T00:28:41.452Z,86.30
2017-10-20T00:31:09.861Z,86.50
2017-10-20T00:33:37.121Z,86.40
2017-10-20T00:36:04.889Z,86.10
2017-10-20T00:38:32.644Z,86.00
2017-10-20T00:41:02.364Z,86.50
2017-10-20T00:43:31.120Z,87.70
2017-10-20T00:45:59.323Z,88.30
2017-10-20T00:48:26.549Z,88.50
2017-10-20T00:50:56.506Z,88.30
2017-10-20T00:53:24.022Z,88.10
2017-10-20T00:55:51.650Z,88.20
2017-10-20T00:58:21.680Z,88.00
2017-10-20T01:00:51.472Z,87.70
2017-10-20T01:03:18.945Z,87.20
2017-10-20T01:05:47.510Z,87.40
2017-10-20T01:08:15.557Z,86.80
2017-10-20T01:10:43.412Z,87.00
2017-10-20T01:13:11.506Z,86.90
2017-10-20T01:15:38.730Z,86.70
2017-10-20T01:18:05.709Z,86.70
2017-10-20T01:20:33.473Z,86.50
2017-10-20T01:23:00.516Z,86.40
2017-10-20T01:25:29.216Z,86.60
2017-10-20T01:27:56.548Z,86.70
2017-10-20T01:30:24.553Z,86.70
2017-10-20T01:32:51.741Z,87.00
2017-10-20T01:35:19.918Z,86.50
2017-10-20T01:37:48.413Z,86.50
2017-10-20T01:40:15.740Z,87.10
2017-10-20T01:42:43.844Z,87.20
2017-10-20T01:45:11.545Z,87.20
2017-10-20T01:47:42.352Z,87.30
2017-10-20T01:50:11.379Z,87.50
2017-10-20T01:52:38.903Z,87.60
2017-10-20T01:55:07.312Z,87.40
2017-10-20T01:57:34.531Z,87.60
2017-10-20T02:00:01.738Z,87.60
2017-10-20T02:02:29.401Z,88.10
2017-10-20T02:04:56.561Z,88.30
2017-10-20T02:07:25.821Z,88.50
2017-10-20T02:09:56.610Z,88.40
2017-10-20T02:12:25.404Z,88.00
2017-10-20T02:14:53.333Z,88.00
2017-10-20T02:17:20.566Z,87.60
2017-10-20T02:19:47.801Z,87.30
2017-10-20T02:22:15.766Z,86.50
2017-10-20T02:24:43.533Z,86.40
2017-10-20T02:27:11.536Z,86.10
2017-10-20T02:29:39.065Z,86.20
2017-10-20T02:32:06.525Z,86.60
2017-10-20T02:34:33.676Z,87.20
2017-10-20T02:37:01.473Z,87.60
2017-10-20T02:39:28.979Z,89.00
2017-10-20T02:41:56.293Z,90.10
2017-10-20T02:44:23.406Z,90.00
2017-10-20T02:46:50.873Z,89.50
2017-10-20T02:49:18.238Z,89.30
2017-10-20T02:51:45.384Z,89.00
2017-10-20T02:54:15.824Z,88.40
2017-10-20T02:56:44.724Z,88.80
2017-10-20T02:59:11.744Z,90.00
2017-10-20T03:01:39.636Z,90.00
2017-10-20T03:04:06.720Z,90.00
2017-10-20T03:06:34.185Z,89.90
2017-10-20T03:09:01.590Z,89.90
2017-10-20T03:11:28.893Z,89.70
2017-10-20T03:13:57.904Z,89.20
2017-10-20T03:16:26.545Z,89.00
2017-10-20T03:18:54.769Z,88.90
2017-10-20T03:21:21.824Z,88.70
2017-10-20T03:23:49.586Z,88.50
2017-10-20T03:26:16.514Z,88.60
2017-10-20T03:28:43.548Z,88.40
2017-10-20T03:31:10.822Z,88.30
2017-10-20T03:33:38.095Z,88.10
2017-10-20T03:36:05.417Z,87.50
2017-10-20T03:38:33.557Z,87.40
2017-10-20T03:41:00.474Z,86.50
2017-10-20T03:43:28.040Z,87.00
2017-10-20T03:45:55.468Z,86.70
2017-10-20T03:48:23.490Z,87.40
2017-10-20T03:50:50.460Z,87.50
2017-10-20T03:53:17.776Z,87.80
2017-10-20T03:55:45.468Z,88.40
2017-10-20T03:58:12.496Z,88.80
2017-10-20T04:00:39.750Z,88.80
2017-10-20T04:03:07.272Z,88.60
2017-10-20T04:05:34.925Z,88.70
2017-10-20T04:08:02.556Z,88.70
2017-10-20T04:10:29.677Z,88.40
2017-10-20T04:12:57.351Z,88.20
2017-10-20T04:15:24.448Z,87.80
2017-10-20T04:17:53.941Z,88.00
2017-10-20T04:20:20.992Z,88.00
2017-10-20T04:22:49.821Z,87.50
2017-10-20T04:25:18.030Z,87.50
2017-10-20T04:27:59.488Z,88.60
2017-10-20T04:30:26.466Z,87.40
2017-10-20T04:32:54.972Z,88.00
2017-10-20T04:35:22.686Z,88.70
2017-10-20T04:37:51.273Z,88.00
2017-10-20T04:40:20.494Z,87.20
2017-10-20T04:42:48.442Z,86.70
2017-10-20T04:45:15.806Z,86.90
2017-10-20T04:47:43.239Z,86.10
2017-10-20T04:50:10.282Z,86.90
2017-10-20T04:52:37.695Z,86.70
2017-10-20T04:55:08.325Z,86.50
2017-10-20T04:57:35.939Z,86.40
2017-10-20T05:00:05.726Z,86.60
2017-10-20T05:02:36.294Z,87.20
2017-10-20T05:05:03.357Z,86.90
2017-10-20T05:07:31.658Z,86.60
2017-10-20T05:09:58.918Z,86.00
2017-10-20T05:12:30.612Z,86.20
2017-10-20T05:14:58.261Z,86.10
2017-10-20T05:17:26.395Z,86.30
2017-10-20T05:20:00.139Z,86.30
2017-10-20T05:22:27.528Z,86.40
2017-10-20T05:24:54.507Z,86.30
2017-10-20T05:27:33.360Z,86.20
2017-10-20T05:30:08.456Z,86.30
2017-10-20T05:32:37.055Z,86.00
2017-10-20T05:35:04.169Z,86.50
2017-10-20T05:37:33.298Z,87.00
2017-10-20T05:40:02.269Z,86.90
2017-10-20T05:42:29.913Z,86.90
2017-10-20T05:44:57.455Z,86.70
2017-10-20T05:47:26.117Z,86.70
2017-10-20T05:49:53.436Z,86.60
2017-10-20T05:52:22.689Z,86.60
2017-10-20T05:54:59.749Z,86.40
2017-10-20T05:57:35.675Z,86.40
2017-10-20T06:00:04.401Z,87.00
2017-10-20T06:02:32.052Z,87.20
2017-10-20T06:05:00.920Z,86.50
2017-10-20T06:07:28.833Z,86.30
2017-10-20T06:09:55.970Z,86.30
2017-10-20T06:12:26.288Z,86.80
2017-10-20T06:14:54.468Z,87.00
2017-10-20T06:17:35.743Z,87.30
2017-10-20T06:20:05.566Z,87.20
2017-10-20T06:22:32.581Z,87.80
2017-10-20T06:25:00.884Z,87.40
2017-10-20T06:27:37.955Z,87.40
2017-10-20T06:30:10.429Z,87.20
2017-10-20T06:32:38.382Z,87.40
2017-10-20T06:35:17.709Z,87.20
2017-10-20T06:37:45.618Z,87.10
2017-10-20T06:40:13.467Z,87.00
2017-10-20T06:42:41.217Z,87.00
2017-10-20T06:45:10.527Z,87.10
2017-10-20T06:47:38.560Z,87.00
2017-10-20T06:50:08.299Z,86.60
2017-10-20T06:52:36.431Z,86.70
2017-10-20T06:55:03.602Z,86.00
2017-10-20T06:57:30.764Z,85.80
2017-10-20T06:59:59.738Z,87.10
2017-10-20T07:02:32.456Z,87.10
2017-10-20T07:05:01.492Z,88.10
2017-10-20T07:07:30.788Z,88.20
2017-10-20T07:09:58.138Z,88.50
2017-10-20T07:12:25.687Z,87.60
2017-10-20T07:14:53.092Z,87.60
2017-10-20T07:17:22.009Z,88.40
2017-10-20T07:19:52.085Z,88.30
2017-10-20T07:22:21.680Z,87.50
2017-10-20T07:24:52.612Z,87.90
2017-10-20T07:27:21.404Z,87.30
2017-10-20T07:29:48.863Z,87.30
2017-10-20T07:32:16.837Z,87.50
2017-10-20T07:34:45.351Z,87.20
2017-10-20T07:37:19.264Z,88.00
2017-10-20T07:40:02.102Z,87.80
2017-10-20T07:42:42.948Z,87.20
2017-10-20T07:45:25.859Z,88.10
2017-10-20T07:47:55.595Z,87.30
2017-10-20T07:50:22.797Z,86.60
2017-10-20T07:52:53.344Z,86.00
2017-10-20T07:55:27.030Z,85.10
2017-10-20T07:57:59.059Z,85.30
2017-10-20T08:00:31.400Z,84.80
2017-10-20T08:03:10.658Z,83.50
2017-10-20T08:05:48.298Z,83.40
2017-10-20T08:08:30.842Z,83.10
2017-10-20T08:11:11.079Z,83.10
2017-10-20T08:13:44.766Z,83.40
2017-10-20T08:16:24.006Z,83.20
2017-10-20T08:19:04.658Z,83.20
2017-10-20T08:21:51.384Z,83.00
2017-10-20T08:27:23.132Z,83.20
2017-10-20T08:30:08.056Z,82.10
2017-10-20T08:32:37.053Z,81.30
2017-10-20T08:35:05.235Z,80.70
2017-10-20T08:37:33.284Z,80.80
2017-10-20T08:40:00.949Z,80.90
2017-10-20T08:42:33.575Z,80.40
2017-10-20T08:45:11.315Z,79.90
2017-10-20T08:47:41.768Z,80.10
2017-10-20T08:50:08.868Z,80.10
2017-10-20T08:52:37.037Z,79.00
2017-10-20T08:55:10.352Z,78.40
2017-10-20T08:57:40.750Z,78.30
2017-10-20T09:00:15.644Z,77.70
2017-10-20T09:02:43.005Z,77.00
2017-10-20T09:05:10.306Z,76.60
2017-10-20T09:07:38.116Z,76.00
2017-10-20T09:10:09.601Z,75.70
2017-10-20T09:12:54.188Z,74.80
2017-10-20T09:15:27.755Z,74.40
2017-10-20T09:18:03.634Z,76.80
2017-10-20T09:20:36.935Z,77.20
2017-10-20T09:23:12.566Z,77.00
2017-10-20T09:25:46.978Z,77.10
2017-10-20T09:28:21.348Z,76.70
2017-10-20T09:30:55.441Z,77.70
2017-10-20T09:33:29.783Z,77.80
2017-10-20T09:36:07.653Z,78.80
2017-10-20T09:38:42.980Z,78.70
2017-10-20T09:41:12.996Z,79.00
2017-10-20T09:43:41.043Z,80.70
2017-10-20T09:46:08.993Z,80.20
2017-10-20T09:48:36.728Z,80.80
2017-10-20T09:51:06.729Z,80.60
2017-10-20T09:53:49.846Z,80.50
2017-10-20T09:56:25.828Z,80.00
2017-10-20T09:58:54.666Z,80.70
2017-10-20T10:01:22.057Z,79.20
2017-10-20T10:03:51.069Z,80.20
2017-10-20T10:06:22.199Z,76.90
2017-10-20T10:08:51.561Z,76.90
2017-10-20T10:11:19.519Z,75.90
2017-10-20T10:13:48.058Z,76.10
2017-10-20T10:16:16.046Z,74.80
2017-10-20T10:18:53.587Z,74.30
2017-10-20T10:21:38.401Z,74.30
2017-10-20T10:24:20.521Z,73.80
2017-10-20T10:27:06.549Z,72.90
2017-10-20T10:29:38.639Z,72.90
2017-10-20T10:32:07.195Z,72.00
2017-10-20T10:34:42.505Z,68.90
2017-10-20T10:37:09.556Z,68.40
2017-10-20T10:39:38.756Z,66.80
2017-10-20T10:42:05.985Z,65.70
2017-10-20T10:44:34.879Z,64.10
2017-10-20T10:47:03.224Z,64.30
2017-10-20T10:49:32.132Z,63.80
2017-10-20T10:52:01.893Z,63.30
2017-10-20T10:54:29.921Z,64.00
2017-10-20T10:57:01.701Z,64.50
2017-10-20T10:59:32.815Z,64.70
2017-10-20T11:02:01.912Z,65.80
2017-10-20T11:04:28.930Z,66.20
2017-10-20T11:07:09.631Z,66.50
2017-10-20T11:09:50.185Z,66.20
2017-10-20T11:12:31.241Z,66.80
2017-10-20T11:15:00.873Z,66.90
2017-10-20T11:17:28.040Z,67.80
2017-10-20T11:19:56.152Z,67.10
2017-10-20T11:22:23.609Z,67.10
2017-10-20T11:24:50.503Z,67.70
2017-10-20T11:27:17.494Z,68.30
2017-10-20T11:29:48.577Z,68.90
2017-10-20T11:32:15.483Z,69.10
2017-10-20T11:34:43.897Z,69.70
2017-10-20T11:37:11.526Z,71.20
2017-10-20T11:39:38.615Z,71.50
2017-10-20T11:42:06.023Z,72.30
2017-10-20T11:44:33.889Z,73.80
2017-10-20T11:47:02.393Z,74.90
2017-10-20T11:49:29.416Z,74.90
2017-10-20T11:51:57.573Z,74.60
2017-10-20T11:54:24.476Z,74.60
2017-10-20T11:56:52.843Z,74.80
2017-10-20T11:59:21.074Z,73.20
2017-10-20T12:01:52.349Z,74.00
2017-10-20T12:04:22.845Z,73.70
2017-10-20T12:06:53.588Z,73.60
2017-10-20T12:09:20.812Z,73.00
2017-10-20T12:11:50.631Z,73.50
2017-10-20T12:14:18.400Z,72.40
2017-10-20T12:16:47.541Z,72.20
2017-10-20T12:19:15.520Z,71.90
2017-10-20T12:21:42.813Z,71.80
2017-10-20T12:24:11.778Z,71.90
2017-10-20T12:26:38.916Z,72.50
2017-10-20T12:29:06.973Z,72.80
2017-10-20T12:31:35.307Z,73.00
2017-10-20T12:34:02.353Z,73.00
2017-10-20T12:36:29.852Z,72.70
2017-10-20T12:39:00.858Z,72.00
2017-10-20T12:41:28.020Z,72.00
2017-10-20T12:43:55.394Z,71.90
2017-10-20T12:46:23.316Z,72.50
2017-10-20T12:48:51.710Z,72.80
2017-10-20T12:51:18.762Z,73.80
2017-10-20T12:53:47.755Z,73.70
2017-10-20T12:56:15.317Z,74.60
2017-10-20T12:58:44.248Z,75.00
2017-10-20T13:01:12.431Z,76.30
2017-10-20T13:03:41.147Z,76.30
2017-10-20T13:06:09.057Z,77.00
2017-10-20T13:08:37.800Z,77.90
2017-10-20T13:11:05.413Z,78.40
2017-10-20T13:13:32.465Z,77.70
2017-10-20T13:16:00.314Z,77.70
2017-10-20T13:18:27.213Z,76.50
2017-10-20T13:20:55.429Z,75.70
2017-10-20T13:23:22.406Z,75.70
2017-10-20T13:25:49.481Z,75.50
2017-10-20T13:28:17.800Z,75.80
2017-10-20T13:30:44.894Z,74.60
2017-10-20T13:33:12.722Z,75.10
2017-10-20T13:35:42.024Z,75.10
2017-10-20T13:38:11.541Z,75.00
2017-10-20T13:40:41.237Z,75.50
2017-10-20T13:43:11.949Z,75.00
2017-10-20T13:45:39.387Z,75.20
2017-10-20T13:48:07.726Z,75.70
2017-10-20T13:50:36.373Z,75.50
2017-10-20T13:53:04.976Z,75.80
2017-10-20T13:55:32.516Z,75.90
2017-10-20T13:58:00.820Z,74.80
2017-10-20T14:00:28.168Z,75.50
2017-10-20T14:02:55.658Z,75.70
2017-10-20T14:05:23.704Z,75.50
2017-10-20T14:07:50.704Z,74.80
2017-10-20T14:10:20.667Z,73.90
2017-10-20T14:12:48.115Z,73.90
2017-10-20T14:15:15.739Z,73.40
2017-10-20T14:17:45.473Z,74.00
2017-10-20T14:20:13.169Z,74.00
2017-10-20T14:22:40.383Z,73.80
2017-10-20T14:25:08.783Z,73.00
2017-10-20T14:27:38.931Z,72.80
2017-10-20T14:30:07.398Z,72.40
2017-10-20T14:32:34.509Z,71.90
2017-10-20T14:35:02.342Z,71.00
2017-10-20T14:37:30.489Z,70.90
2017-10-20T14:39:58.553Z,71.60
2017-10-20T14:42:26.285Z,71.90
2017-10-20T14:44:55.372Z,71.60
2017-10-20T14:47:23.422Z,72.00
2017-10-20T14:49:50.982Z,71.00
2017-10-20T14:52:19.858Z,70.90
2017-10-20T14:54:47.413Z,70.60
2017-10-20T14:57:14.451Z,70.10
2017-10-20T14:59:42.895Z,70.00
2017-10-20T15:02:27.859Z,69.80
2017-10-20T15:04:56.356Z,69.90
2017-10-20T15:07:23.545Z,69.30
2017-10-20T15:09:50.582Z,69.60
2017-10-20T15:12:19.011Z,69.20
2017-10-20T15:14:46.906Z,68.70
2017-10-20T15:17:20.566Z,68.90
2017-10-20T15:19:57.810Z,69.00
2017-10-20T15:22:25.367Z,68.60
2017-10-20T15:24:53.161Z,68.20
2017-10-20T15:27:20.316Z,68.40
2017-10-20T15:29:51.460Z,68.80
2017-10-20T15:32:20.071Z,69.00
2017-10-20T15:34:48.450Z,68.80
2017-10-20T15:37:18.850Z,68.70
2017-10-20T15:39:51.366Z,68.70
2017-10-20T15:42:23.437Z,69.20
2017-10-20T15:44:51.559Z,69.20
2017-10-20T15:47:18.809Z,69.70
2017-10-20T15:49:46.687Z,70.00
2017-10-20T15:52:16.849Z,70.30
2017-10-20T15:54:45.812Z,71.80
2017-10-20T15:57:20.913Z,70.90
2017-10-20T15:59:53.370Z,71.30
2017-10-20T16:02:21.756Z,71.70
2017-10-20T16:04:53.303Z,71.70
2017-10-20T16:07:24.574Z,72.00
2017-10-20T16:09:51.825Z,72.60
2017-10-20T16:12:20.293Z,72.80
2017-10-20T16:14:48.287Z,73.00
2017-10-20T16:17:15.873Z,73.40
2017-10-20T16:19:43.894Z,73.60
2017-10-20T16:22:12.121Z,74.10
2017-10-20T16:24:41.236Z,74.50
2017-10-20T16:27:10.416Z,74.50
2017-10-20T16:29:37.537Z,74.70
2017-10-20T16:32:06.377Z,74.70
2017-10-20T16:34:34.524Z,75.30
2017-10-20T16:37:03.673Z,75.40
2017-10-20T16:39:41.660Z,75.60
2017-10-20T16:42:12.261Z,75.80
2017-10-20T16:44:40.022Z,76.10
2017-10-20T16:47:07.032Z,76.40
2017-10-20T16:49:35.976Z,76.60
2017-10-20T16:52:03.603Z,76.60
2017-10-20T16:54:30.984Z,76.50
2017-10-20T16:56:58.404Z,76.70
2017-10-20T16:59:25.996Z,76.90
2017-10-20T17:01:53.132Z,77.00
2017-10-20T17:04:20.544Z,77.00
2017-10-20T17:06:47.626Z,77.00
2017-10-20T17:09:14.771Z,77.00
2017-10-20T17:11:41.896Z,77.30
2017-10-20T17:14:10.653Z,77.20
2017-10-20T17:16:37.763Z,77.30
2017-10-20T17:19:07.605Z,77.50
2017-10-20T17:21:36.185Z,77.70
2017-10-20T17:24:03.822Z,77.70
2017-10-20T17:26:31.280Z,77.50
2017-10-20T17:28:59.021Z,77.40
2017-10-20T17:31:28.788Z,77.60
2017-10-20T17:33:56.658Z,77.50
2017-10-20T17:36:25.965Z,77.70
2017-10-20T17:38:52.961Z,77.50
2017-10-20T17:41:20.781Z,77.40
2017-10-20T17:43:48.191Z,77.00
2017-10-20T17:46:16.892Z,76.80
2017-10-20T17:48:44.682Z,76.80
2017-10-20T17:51:12.009Z,76.80
2017-10-20T17:53:39.384Z,76.30
2017-10-20T17:56:06.432Z,76.30
2017-10-20T17:58:34.656Z,76.20
2017-10-20T18:01:02.602Z,76.30
2017-10-20T18:03:30.595Z,76.00
2017-10-20T18:05:58.703Z,75.90
2017-10-20T18:08:26.215Z,76.10
2017-10-20T18:10:53.781Z,75.90
2017-10-20T18:13:20.796Z,76.00
2017-10-20T18:15:48.968Z,76.30
2017-10-20T18:18:16.022Z,76.40
2017-10-20T18:20:44.512Z,76.10
2017-10-20T18:23:11.900Z,76.20
2017-10-20T18:25:39.392Z,76.00
2017-10-20T18:28:06.993Z,76.10
2017-10-20T18:30:34.381Z,76.20
2017-10-20T18:33:02.791Z,76.10
2017-10-20T18:35:30.184Z,76.10
2017-10-20T18:37:57.200Z,76.20
2017-10-20T18:40:26.077Z,76.40
2017-10-20T18:42:59.021Z,76.80
2017-10-20T18:45:26.243Z,76.70
2017-10-20T18:47:54.145Z,76.90
2017-10-20T18:50:22.197Z,76.90
2017-10-20T18:52:49.666Z,77.20
2017-10-20T18:55:16.967Z,77.30
2017-10-20T18:57:45.322Z,77.60
2017-10-20T19:00:12.715Z,77.50
2017-10-20T19:02:40.228Z,77.60
2017-10-20T19:05:07.605Z,77.70
2017-10-20T19:07:35.531Z,77.70
2017-10-20T19:10:03.627Z,77.90
2017-10-20T19:12:30.997Z,77.80
2017-10-20T19:14:58.526Z,77.80
2017-10-20T19:17:25.665Z,78.20
2017-10-20T19:19:52.690Z,78.40
2017-10-20T19:22:19.871Z,78.50
2017-10-20T19:24:47.348Z,78.70
2017-10-20T19:27:15.538Z,79.00
2017-10-20T19:29:43.381Z,79.00
2017-10-20T19:32:11.069Z,79.00
2017-10-20T19:34:38.048Z,79.10
2017-10-20T19:37:06.138Z,79.20
2017-10-20T19:39:33.387Z,79.50
2017-10-20T19:42:02.449Z,79.20
2017-10-20T19:44:31.599Z,79.00
2017-10-20T19:46:58.563Z,79.30
2017-10-20T19:49:26.017Z,79.50
2017-10-20T19:51:53.645Z,79.50
2017-10-20T19:54:22.781Z,79.30
2017-10-20T19:56:51.113Z,79.20
2017-10-20T19:59:19.233Z,79.00
2017-10-20T20:01:48.551Z,78.80
2017-10-20T20:04:16.277Z,78.70
2017-10-20T20:06:43.268Z,78.80
2017-10-20T20:09:11.416Z,78.80
2017-10-20T20:11:38.812Z,78.70
2017-10-20T20:14:06.149Z,78.70
2017-10-20T20:16:35.026Z,78.90
2017-10-20T20:19:06.058Z,78.90
2017-10-20T20:21:33.314Z,78.80
2017-10-20T20:24:00.433Z,78.70
2017-10-20T20:26:27.710Z,78.90
2017-10-20T20:28:55.318Z,79.00
2017-10-20T20:31:30.488Z,79.10
2017-10-20T20:34:00.672Z,79.00
2017-10-20T20:36:27.783Z,79.10
2017-10-20T20:38:55.341Z,79.40
2017-10-20T20:41:22.537Z,79.60
2017-10-20T20:43:49.717Z,79.60
2017-10-20T20:46:16.896Z,79.80
2017-10-20T20:48:44.762Z,79.80
2017-10-20T20:51:11.754Z,79.60
2017-10-20T20:53:39.625Z,80.00
2017-10-20T20:56:06.494Z,79.20
2017-10-20T20:58:34.093Z,79.30
2017-10-20T21:01:01.376Z,79.30
2017-10-20T21:03:28.609Z,79.00
2017-10-20T21:05:56.385Z,79.10
2017-10-20T21:08:23.959Z,79.30
2017-10-20T21:10:51.507Z,79.10
2017-10-20T21:13:18.683Z,79.20
2017-10-20T21:15:46.549Z,79.50
2017-10-20T21:18:14.687Z,79.30
2017-10-20T21:20:41.621Z,79.10
2017-10-20T21:23:09.188Z,78.90
2017-10-20T21:25:36.349Z,78.80
2017-10-20T21:28:03.472Z,79.00
2017-10-20T21:30:31.015Z,78.90
2017-10-20T21:32:58.354Z,78.80
2017-10-20T21:35:26.019Z,79.20
2017-10-20T21:37:53.324Z,79.60
2017-10-20T21:40:21.300Z,79.50
2017-10-20T21:42:48.221Z,78.90
2017-10-20T21:45:15.228Z,79.10
2017-10-20T21:47:42.993Z,79.40
2017-10-20T21:50:11.303Z,80.40
2017-10-20T21:52:38.992Z,79.70
2017-10-20T21:55:06.463Z,79.80
2017-10-20T21:57:33.917Z,79.90
2017-10-20T22:00:02.038Z,80.40
2017-10-20T22:02:30.208Z,81.00
2017-10-20T22:04:58.418Z,81.50
2017-10-20T22:07:26.720Z,81.40
2017-10-20T22:09:54.050Z,81.60
2017-10-20T22:12:22.193Z,82.50
2017-10-20T22:14:50.831Z,82.50
2017-10-20T22:17:18.557Z,82.50
2017-10-20T22:19:46.733Z,82.20
2017-10-20T22:22:13.917Z,82.10
2017-10-20T22:24:41.115Z,82.40
2017-10-20T22:27:09.746Z,82.80
2017-10-20T22:29:36.909Z,82.80
2017-10-20T22:32:05.113Z,83.00
2017-10-20T22:34:32.224Z,83.30
2017-10-20T22:36:59.389Z,83.50
2017-10-20T22:39:27.073Z,83.50
2017-10-20T22:41:55.913Z,84.20
2017-10-20T22:44:23.113Z,84.30
2017-10-20T22:46:51.104Z,83.80
2017-10-20T22:49:19.100Z,84.40
2017-10-20T22:51:46.520Z,83.90
2017-10-20T22:54:14.670Z,83.50
2017-10-20T22:56:41.786Z,83.30
2017-10-20T22:59:10.099Z,82.90
2017-10-20T23:01:37.746Z,83.30
2017-10-20T23:04:05.013Z,83.30
2017-10-20T23:06:32.437Z,82.90
2017-10-20T23:09:00.211Z,82.40
2017-10-20T23:11:27.674Z,82.80
2017-10-20T23:13:56.741Z,83.50
2017-10-20T23:16:26.749Z,84.70
2017-10-20T23:18:54.515Z,85.00
2017-10-20T23:21:22.346Z,84.90
2017-10-20T23:23:51.286Z,84.90
2017-10-20T23:26:18.310Z,85.00
2017-10-20T23:28:46.290Z,84.80
2017-10-20T23:31:14.489Z,83.90
2017-10-20T23:33:41.774Z,83.60
2017-10-20T23:36:09.852Z,83.30
2017-10-20T23:38:37.699Z,83.40
2017-10-20T23:41:04.577Z,83.50
2017-10-20T23:43:36.929Z,84.30
2017-10-20T23:46:06.145Z,85.70
2017-10-20T23:48:36.496Z,87.70
2017-10-20T23:51:03.536Z,88.40
2017-10-20T23:53:31.858Z,87.80
2017-10-20T23:55:59.244Z,86.80
2017-10-20T23:58:27.991Z,86.70
